sensor_id;sensor_type;location;lat;lon;timestamp;temperature;humidity
30473;DHT22;17263;48.160;11.452;2023-05-31T00:01:39;15.50;86.20
30473;DHT22;17263;48.160;11.452;2023-05-31T00:04:05;15.40;86.10
30473;DHT22;17263;48.160;11.452;2023-05-31T00:06:32;15.40;86.10
30473;DHT22;17263;48.160;11.452;2023-05-31T00:08:58;15.30;85.80
30473;DHT22;17263;48.160;11.452;2023-05-31T00:11:24;15.30;85.60
30473;DHT22;17263;48.160;11.452;2023-05-31T00:13:52;15.30;85.30
30473;DHT22;17263;48.160;11.452;2023-05-31T00:16:18;15.30;85.30
30473;DHT22;17263;48.160;11.452;2023-05-31T00:18:44;15.20;84.60
30473;DHT22;17263;48.160;11.452;2023-05-31T00:21:11;15.20;84.30
30473;DHT22;17263;48.160;11.452;2023-05-31T00:23:36;15.20;83.80
30473;DHT22;17263;48.160;11.452;2023-05-31T00:26:03;15.20;83.30
30473;DHT22;17263;48.160;11.452;2023-05-31T00:28:29;15.20;83.40
30473;DHT22;17263;48.160;11.452;2023-05-31T00:30:55;15.10;83.60
30473;DHT22;17263;48.160;11.452;2023-05-31T00:33:21;15.10;83.40
30473;DHT22;17263;48.160;11.452;2023-05-31T00:35:47;15.10;82.60
30473;DHT22;17263;48.160;11.452;2023-05-31T00:38:13;15.00;82.50
30473;DHT22;17263;48.160;11.452;2023-05-31T00:40:39;15.00;82.70
30473;DHT22;17263;48.160;11.452;2023-05-31T00:43:05;15.00;82.10
30473;DHT22;17263;48.160;11.452;2023-05-31T00:45:33;15.10;82.00
30473;DHT22;17263;48.160;11.452;2023-05-31T00:48:03;15.00;81.80
30473;DHT22;17263;48.160;11.452;2023-05-31T00:50:29;15.00;82.10
30473;DHT22;17263;48.160;11.452;2023-05-31T00:52:57;14.90;82.40
30473;DHT22;17263;48.160;11.452;2023-05-31T00:55:25;14.90;82.60
30473;DHT22;17263;48.160;11.452;2023-05-31T00:57:51;14.80;82.50
30473;DHT22;17263;48.160;11.452;2023-05-31T01:00:17;14.80;82.70
30473;DHT22;17263;48.160;11.452;2023-05-31T01:02:43;14.70;82.50
30473;DHT22;17263;48.160;11.452;2023-05-31T01:05:10;14.70;82.60
30473;DHT22;17263;48.160;11.452;2023-05-31T01:07:36;14.70;82.80
30473;DHT22;17263;48.160;11.452;2023-05-31T01:10:04;14.70;83.00
30473;DHT22;17263;48.160;11.452;2023-05-31T01:15:15;14.50;82.10
30473;DHT22;17263;48.160;11.452;2023-05-31T01:18:03;14.50;82.10
30473;DHT22;17263;48.160;11.452;2023-05-31T01:20:37;14.50;82.40
30473;DHT22;17263;48.160;11.452;2023-05-31T01:28:45;14.30;82.30
30473;DHT22;17263;48.160;11.452;2023-05-31T01:31:15;14.30;83.00
30473;DHT22;17263;48.160;11.452;2023-05-31T01:33:42;14.20;82.10
30473;DHT22;17263;48.160;11.452;2023-05-31T01:36:09;14.20;82.90
30473;DHT22;17263;48.160;11.452;2023-05-31T01:38:35;14.10;82.10
30473;DHT22;17263;48.160;11.452;2023-05-31T01:41:02;14.10;82.00
30473;DHT22;17263;48.160;11.452;2023-05-31T01:43:34;14.10;82.60
30473;DHT22;17263;48.160;11.452;2023-05-31T01:46:01;14.00;82.70
30473;DHT22;17263;48.160;11.452;2023-05-31T01:48:28;14.00;82.90
30473;DHT22;17263;48.160;11.452;2023-05-31T01:50:56;13.90;82.90
30473;DHT22;17263;48.160;11.452;2023-05-31T01:53:23;13.90;83.30
30473;DHT22;17263;48.160;11.452;2023-05-31T01:55:50;13.90;83.20
30473;DHT22;17263;48.160;11.452;2023-05-31T01:58:16;13.80;83.60
30473;DHT22;17263;48.160;11.452;2023-05-31T02:00:43;13.80;84.00
30473;DHT22;17263;48.160;11.452;2023-05-31T02:03:09;13.70;84.00
30473;DHT22;17263;48.160;11.452;2023-05-31T02:05:36;13.60;84.30
30473;DHT22;17263;48.160;11.452;2023-05-31T02:08:02;13.60;84.20
30473;DHT22;17263;48.160;11.452;2023-05-31T02:10:28;13.60;84.10
30473;DHT22;17263;48.160;11.452;2023-05-31T02:12:54;13.60;84.30
30473;DHT22;17263;48.160;11.452;2023-05-31T02:15:21;13.60;84.50
30473;DHT22;17263;48.160;11.452;2023-05-31T02:17:48;13.50;84.90
30473;DHT22;17263;48.160;11.452;2023-05-31T02:20:18;13.40;85.50
30473;DHT22;17263;48.160;11.452;2023-05-31T02:22:45;13.40;85.80
30473;DHT22;17263;48.160;11.452;2023-05-31T02:25:13;13.30;85.70
30473;DHT22;17263;48.160;11.452;2023-05-31T02:27:40;13.30;86.00
30473;DHT22;17263;48.160;11.452;2023-05-31T02:30:07;13.30;86.10
30473;DHT22;17263;48.160;11.452;2023-05-31T02:32:34;13.20;86.70
30473;DHT22;17263;48.160;11.452;2023-05-31T02:35:08;13.30;86.20
30473;DHT22;17263;48.160;11.452;2023-05-31T02:37:35;13.30;86.70
30473;DHT22;17263;48.160;11.452;2023-05-31T02:40:06;13.30;87.00
30473;DHT22;17263;48.160;11.452;2023-05-31T02:42:35;13.20;87.20
30473;DHT22;17263;48.160;11.452;2023-05-31T02:45:02;13.20;87.60
30473;DHT22;17263;48.160;11.452;2023-05-31T02:47:28;13.10;87.40
30473;DHT22;17263;48.160;11.452;2023-05-31T02:49:54;13.10;87.30
30473;DHT22;17263;48.160;11.452;2023-05-31T02:52:20;13.10;88.00
30473;DHT22;17263;48.160;11.452;2023-05-31T02:54:49;13.00;88.30
30473;DHT22;17263;48.160;11.452;2023-05-31T02:57:15;12.90;89.20
30473;DHT22;17263;48.160;11.452;2023-05-31T02:59:45;12.90;89.80
30473;DHT22;17263;48.160;11.452;2023-05-31T03:02:11;12.80;90.00
30473;DHT22;17263;48.160;11.452;2023-05-31T03:04:37;12.80;90.10
30473;DHT22;17263;48.160;11.452;2023-05-31T03:07:04;12.70;89.90
30473;DHT22;17263;48.160;11.452;2023-05-31T03:09:30;12.70;89.70
30473;DHT22;17263;48.160;11.452;2023-05-31T03:11:56;12.70;89.20
30473;DHT22;17263;48.160;11.452;2023-05-31T03:14:22;12.70;89.30
30473;DHT22;17263;48.160;11.452;2023-05-31T03:16:48;12.70;89.30
30473;DHT22;17263;48.160;11.452;2023-05-31T03:19:14;12.60;89.50
30473;DHT22;17263;48.160;11.452;2023-05-31T03:21:40;12.60;90.10
30473;DHT22;17263;48.160;11.452;2023-05-31T03:24:06;12.50;90.20
30473;DHT22;17263;48.160;11.452;2023-05-31T03:26:32;12.40;90.30
30473;DHT22;17263;48.160;11.452;2023-05-31T03:28:58;12.40;90.30
30473;DHT22;17263;48.160;11.452;2023-05-31T03:31:24;12.40;90.30
30473;DHT22;17263;48.160;11.452;2023-05-31T03:33:50;12.40;90.30
30473;DHT22;17263;48.160;11.452;2023-05-31T03:36:16;12.40;90.30
30473;DHT22;17263;48.160;11.452;2023-05-31T03:38:42;12.40;90.40
30473;DHT22;17263;48.160;11.452;2023-05-31T03:41:08;12.30;90.50
30473;DHT22;17263;48.160;11.452;2023-05-31T03:43:34;12.30;90.70
30473;DHT22;17263;48.160;11.452;2023-05-31T03:46:01;12.30;90.60
30473;DHT22;17263;48.160;11.452;2023-05-31T03:48:30;12.30;90.70
30473;DHT22;17263;48.160;11.452;2023-05-31T03:50:57;12.30;90.70
30473;DHT22;17263;48.160;11.452;2023-05-31T03:53:23;12.30;90.70
30473;DHT22;17263;48.160;11.452;2023-05-31T03:55:49;12.30;90.90
30473;DHT22;17263;48.160;11.452;2023-05-31T03:58:16;12.30;91.20
30473;DHT22;17263;48.160;11.452;2023-05-31T04:00:43;12.30;90.90
30473;DHT22;17263;48.160;11.452;2023-05-31T04:03:09;12.30;90.90
30473;DHT22;17263;48.160;11.452;2023-05-31T04:05:41;12.30;90.90
30473;DHT22;17263;48.160;11.452;2023-05-31T04:08:07;12.30;90.90
30473;DHT22;17263;48.160;11.452;2023-05-31T04:10:33;12.30;90.90
30473;DHT22;17263;48.160;11.452;2023-05-31T04:13:00;12.40;90.70
30473;DHT22;17263;48.160;11.452;2023-05-31T04:15:26;12.40;90.60
30473;DHT22;17263;48.160;11.452;2023-05-31T04:17:52;12.50;90.60
30473;DHT22;17263;48.160;11.452;2023-05-31T04:20:18;12.60;90.60
30473;DHT22;17263;48.160;11.452;2023-05-31T04:22:44;12.60;90.80
30473;DHT22;17263;48.160;11.452;2023-05-31T04:25:11;12.70;90.80
30473;DHT22;17263;48.160;11.452;2023-05-31T04:27:39;12.70;90.90
30473;DHT22;17263;48.160;11.452;2023-05-31T04:30:06;12.70;90.80
30473;DHT22;17263;48.160;11.452;2023-05-31T04:32:36;12.80;90.80
30473;DHT22;17263;48.160;11.452;2023-05-31T04:35:03;12.90;90.90
30473;DHT22;17263;48.160;11.452;2023-05-31T04:37:30;13.00;90.80
30473;DHT22;17263;48.160;11.452;2023-05-31T04:39:56;13.10;90.50
30473;DHT22;17263;48.160;11.452;2023-05-31T04:42:24;13.20;90.50
30473;DHT22;17263;48.160;11.452;2023-05-31T04:44:51;13.40;90.40
30473;DHT22;17263;48.160;11.452;2023-05-31T04:47:17;13.50;90.00
30473;DHT22;17263;48.160;11.452;2023-05-31T04:49:44;13.70;89.90
30473;DHT22;17263;48.160;11.452;2023-05-31T04:52:11;13.90;89.50
30473;DHT22;17263;48.160;11.452;2023-05-31T04:54:38;14.10;89.40
30473;DHT22;17263;48.160;11.452;2023-05-31T04:57:04;14.40;89.00
30473;DHT22;17263;48.160;11.452;2023-05-31T04:59:30;14.70;89.50
30473;DHT22;17263;48.160;11.452;2023-05-31T05:01:58;14.90;87.90
30473;DHT22;17263;48.160;11.452;2023-05-31T05:04:24;15.30;87.20
30473;DHT22;17263;48.160;11.452;2023-05-31T05:06:50;15.90;86.00
30473;DHT22;17263;48.160;11.452;2023-05-31T05:09:16;16.80;84.00
30473;DHT22;17263;48.160;11.452;2023-05-31T05:11:42;17.70;79.40
30473;DHT22;17263;48.160;11.452;2023-05-31T05:14:09;18.50;75.50
30473;DHT22;17263;48.160;11.452;2023-05-31T05:16:35;19.30;73.90
30473;DHT22;17263;48.160;11.452;2023-05-31T05:19:01;20.00;72.00
30473;DHT22;17263;48.160;11.452;2023-05-31T05:21:27;20.60;68.30
30473;DHT22;17263;48.160;11.452;2023-05-31T05:23:54;21.00;67.50
30473;DHT22;17263;48.160;11.452;2023-05-31T05:26:20;21.50;64.80
30473;DHT22;17263;48.160;11.452;2023-05-31T05:28:47;21.50;64.00
30473;DHT22;17263;48.160;11.452;2023-05-31T05:31:13;21.70;62.90
30473;DHT22;17263;48.160;11.452;2023-05-31T05:33:39;21.70;63.40
30473;DHT22;17263;48.160;11.452;2023-05-31T05:36:06;21.90;62.30
30473;DHT22;17263;48.160;11.452;2023-05-31T05:38:32;22.10;61.50
30473;DHT22;17263;48.160;11.452;2023-05-31T05:40:58;22.40;61.80
30473;DHT22;17263;48.160;11.452;2023-05-31T05:43:24;22.80;61.10
30473;DHT22;17263;48.160;11.452;2023-05-31T05:45:50;23.30;59.70
30473;DHT22;17263;48.160;11.452;2023-05-31T05:48:16;23.70;59.10
30473;DHT22;17263;48.160;11.452;2023-05-31T05:50:42;23.70;57.20
30473;DHT22;17263;48.160;11.452;2023-05-31T05:53:08;23.80;57.00
30473;DHT22;17263;48.160;11.452;2023-05-31T05:55:34;23.70;56.50
30473;DHT22;17263;48.160;11.452;2023-05-31T05:58:00;23.20;57.00
30473;DHT22;17263;48.160;11.452;2023-05-31T06:00:26;23.00;57.20
30473;DHT22;17263;48.160;11.452;2023-05-31T06:02:53;22.60;58.30
30473;DHT22;17263;48.160;11.452;2023-05-31T06:05:19;22.80;58.60
30473;DHT22;17263;48.160;11.452;2023-05-31T06:07:51;23.10;58.00
30473;DHT22;17263;48.160;11.452;2023-05-31T06:10:17;23.30;57.20
30473;DHT22;17263;48.160;11.452;2023-05-31T06:12:44;23.10;57.40
30473;DHT22;17263;48.160;11.452;2023-05-31T06:15:10;23.20;57.80
30473;DHT22;17263;48.160;11.452;2023-05-31T06:17:36;23.30;57.50
30473;DHT22;17263;48.160;11.452;2023-05-31T06:20:03;23.50;57.00
30473;DHT22;17263;48.160;11.452;2023-05-31T06:22:31;23.50;56.80
30473;DHT22;17263;48.160;11.452;2023-05-31T06:24:57;23.40;57.80
30473;DHT22;17263;48.160;11.452;2023-05-31T06:27:24;23.40;57.60
30473;DHT22;17263;48.160;11.452;2023-05-31T06:29:50;23.50;57.20
30473;DHT22;17263;48.160;11.452;2023-05-31T06:32:24;23.20;57.10
30473;DHT22;17263;48.160;11.452;2023-05-31T06:34:51;23.30;57.60
30473;DHT22;17263;48.160;11.452;2023-05-31T06:37:18;23.50;58.10
30473;DHT22;17263;48.160;11.452;2023-05-31T06:39:44;23.80;57.30
30473;DHT22;17263;48.160;11.452;2023-05-31T06:42:10;24.20;57.00
30473;DHT22;17263;48.160;11.452;2023-05-31T06:44:37;24.60;55.40
30473;DHT22;17263;48.160;11.452;2023-05-31T06:47:03;24.50;55.00
30473;DHT22;17263;48.160;11.452;2023-05-31T06:49:32;24.40;55.20
30473;DHT22;17263;48.160;11.452;2023-05-31T06:51:58;24.40;55.20
30473;DHT22;17263;48.160;11.452;2023-05-31T06:54:26;24.10;55.30
30473;DHT22;17263;48.160;11.452;2023-05-31T06:56:52;23.60;56.90
30473;DHT22;17263;48.160;11.452;2023-05-31T06:59:18;23.60;57.70
30473;DHT22;17263;48.160;11.452;2023-05-31T07:01:44;24.00;57.20
30473;DHT22;17263;48.160;11.452;2023-05-31T07:04:10;24.00;56.10
30473;DHT22;17263;48.160;11.452;2023-05-31T07:06:36;23.90;56.30
30473;DHT22;17263;48.160;11.452;2023-05-31T07:09:06;23.80;57.60
30473;DHT22;17263;48.160;11.452;2023-05-31T07:11:32;23.80;57.20
30473;DHT22;17263;48.160;11.452;2023-05-31T07:13:58;24.20;57.40
30473;DHT22;17263;48.160;11.452;2023-05-31T07:16:28;24.80;55.80
30473;DHT22;17263;48.160;11.452;2023-05-31T07:18:54;25.10;54.90
30473;DHT22;17263;48.160;11.452;2023-05-31T07:21:22;25.40;55.10
30473;DHT22;17263;48.160;11.452;2023-05-31T07:23:48;25.40;54.00
30473;DHT22;17263;48.160;11.452;2023-05-31T07:26:15;24.90;54.20
30473;DHT22;17263;48.160;11.452;2023-05-31T07:28:44;24.60;55.50
30473;DHT22;17263;48.160;11.452;2023-05-31T07:31:12;24.80;55.70
30473;DHT22;17263;48.160;11.452;2023-05-31T07:33:38;24.70;55.60
30473;DHT22;17263;48.160;11.452;2023-05-31T07:36:05;24.80;54.80
30473;DHT22;17263;48.160;11.452;2023-05-31T07:38:31;24.40;55.70
30473;DHT22;17263;48.160;11.452;2023-05-31T07:40:57;24.70;56.40
30473;DHT22;17263;48.160;11.452;2023-05-31T07:43:23;24.90;55.70
30473;DHT22;17263;48.160;11.452;2023-05-31T07:45:50;25.00;55.60
30473;DHT22;17263;48.160;11.452;2023-05-31T07:48:17;25.20;55.90
30473;DHT22;17263;48.160;11.452;2023-05-31T07:50:44;25.50;55.60
30473;DHT22;17263;48.160;11.452;2023-05-31T07:53:10;25.70;54.30
30473;DHT22;17263;48.160;11.452;2023-05-31T07:55:36;25.50;54.40
30473;DHT22;17263;48.160;11.452;2023-05-31T07:58:03;25.50;55.10
30473;DHT22;17263;48.160;11.452;2023-05-31T08:00:29;25.60;55.30
30473;DHT22;17263;48.160;11.452;2023-05-31T08:02:55;25.80;53.90
30473;DHT22;17263;48.160;11.452;2023-05-31T08:05:21;25.50;54.00
30473;DHT22;17263;48.160;11.452;2023-05-31T08:07:48;25.50;54.60
30473;DHT22;17263;48.160;11.452;2023-05-31T08:10:17;25.30;55.20
30473;DHT22;17263;48.160;11.452;2023-05-31T08:12:43;25.50;55.60
30473;DHT22;17263;48.160;11.452;2023-05-31T08:15:10;26.00;54.70
30473;DHT22;17263;48.160;11.452;2023-05-31T08:17:37;26.40;54.10
30473;DHT22;17263;48.160;11.452;2023-05-31T08:20:03;26.50;54.00
30473;DHT22;17263;48.160;11.452;2023-05-31T08:22:33;26.10;52.90
30473;DHT22;17263;48.160;11.452;2023-05-31T08:24:59;26.20;54.00
30473;DHT22;17263;48.160;11.452;2023-05-31T08:27:25;26.00;53.90
30473;DHT22;17263;48.160;11.452;2023-05-31T08:29:51;25.60;54.30
30473;DHT22;17263;48.160;11.452;2023-05-31T08:32:17;25.60;54.00
30473;DHT22;17263;48.160;11.452;2023-05-31T08:34:43;25.50;54.40
30473;DHT22;17263;48.160;11.452;2023-05-31T08:37:12;25.50;54.10
30473;DHT22;17263;48.160;11.452;2023-05-31T08:39:38;25.70;54.40
30473;DHT22;17263;48.160;11.452;2023-05-31T08:42:07;26.00;53.20
30473;DHT22;17263;48.160;11.452;2023-05-31T08:44:36;25.80;53.40
30473;DHT22;17263;48.160;11.452;2023-05-31T08:47:14;25.80;53.80
30473;DHT22;17263;48.160;11.452;2023-05-31T08:49:44;26.10;54.10
30473;DHT22;17263;48.160;11.452;2023-05-31T08:52:10;26.10;53.20
30473;DHT22;17263;48.160;11.452;2023-05-31T08:54:37;26.30;53.00
30473;DHT22;17263;48.160;11.452;2023-05-31T08:57:04;26.20;52.50
30473;DHT22;17263;48.160;11.452;2023-05-31T08:59:31;26.10;53.10
30473;DHT22;17263;48.160;11.452;2023-05-31T09:01:59;26.00;51.70
30473;DHT22;17263;48.160;11.452;2023-05-31T09:04:26;25.80;51.90
30473;DHT22;17263;48.160;11.452;2023-05-31T09:06:53;25.80;53.20
30473;DHT22;17263;48.160;11.452;2023-05-31T09:09:19;26.00;52.70
30473;DHT22;17263;48.160;11.452;2023-05-31T09:11:45;26.10;52.30
30473;DHT22;17263;48.160;11.452;2023-05-31T09:14:11;26.30;52.70
30473;DHT22;17263;48.160;11.452;2023-05-31T09:16:37;26.30;51.70
30473;DHT22;17263;48.160;11.452;2023-05-31T09:19:04;26.30;51.40
30473;DHT22;17263;48.160;11.452;2023-05-31T09:21:41;26.30;50.40
30473;DHT22;17263;48.160;11.452;2023-05-31T09:24:08;26.20;49.80
30473;DHT22;17263;48.160;11.452;2023-05-31T09:26:34;26.00;50.30
30473;DHT22;17263;48.160;11.452;2023-05-31T09:29:00;25.80;50.60
30473;DHT22;17263;48.160;11.452;2023-05-31T09:31:26;25.80;51.00
30473;DHT22;17263;48.160;11.452;2023-05-31T09:33:53;25.70;50.20
30473;DHT22;17263;48.160;11.452;2023-05-31T09:36:30;25.60;50.50
30473;DHT22;17263;48.160;11.452;2023-05-31T09:39:02;25.60;50.60
30473;DHT22;17263;48.160;11.452;2023-05-31T09:41:34;25.20;51.20
30473;DHT22;17263;48.160;11.452;2023-05-31T09:44:01;25.00;52.50
30473;DHT22;17263;48.160;11.452;2023-05-31T09:46:27;25.10;53.20
30473;DHT22;17263;48.160;11.452;2023-05-31T09:48:58;25.20;51.80
30473;DHT22;17263;48.160;11.452;2023-05-31T09:51:25;25.00;52.00
30473;DHT22;17263;48.160;11.452;2023-05-31T09:53:51;24.90;51.90
30473;DHT22;17263;48.160;11.452;2023-05-31T09:56:22;24.80;52.50
30473;DHT22;17263;48.160;11.452;2023-05-31T09:58:49;24.80;52.60
30473;DHT22;17263;48.160;11.452;2023-05-31T10:01:17;24.90;53.00
30473;DHT22;17263;48.160;11.452;2023-05-31T10:03:43;24.80;52.60
30473;DHT22;17263;48.160;11.452;2023-05-31T10:06:10;24.80;53.00
30473;DHT22;17263;48.160;11.452;2023-05-31T10:08:38;25.10;52.70
30473;DHT22;17263;48.160;11.452;2023-05-31T10:11:04;25.20;52.70
30473;DHT22;17263;48.160;11.452;2023-05-31T10:13:31;25.20;52.00
30473;DHT22;17263;48.160;11.452;2023-05-31T10:16:04;24.90;52.30
30473;DHT22;17263;48.160;11.452;2023-05-31T10:18:32;24.90;53.30
30473;DHT22;17263;48.160;11.452;2023-05-31T10:21:06;24.80;52.40
30473;DHT22;17263;48.160;11.452;2023-05-31T10:23:40;24.70;53.20
30473;DHT22;17263;48.160;11.452;2023-05-31T10:26:17;24.80;52.60
30473;DHT22;17263;48.160;11.452;2023-05-31T10:29:19;24.90;52.80
30473;DHT22;17263;48.160;11.452;2023-05-31T10:31:51;24.80;52.70
30473;DHT22;17263;48.160;11.452;2023-05-31T10:34:23;24.80;53.00
30473;DHT22;17263;48.160;11.452;2023-05-31T10:36:50;24.60;52.20
30473;DHT22;17263;48.160;11.452;2023-05-31T10:42:22;23.90;52.60
30473;DHT22;17263;48.160;11.452;2023-05-31T10:47:39;23.40;52.70
30473;DHT22;17263;48.160;11.452;2023-05-31T10:50:07;23.10;54.10
30473;DHT22;17263;48.160;11.452;2023-05-31T10:52:33;22.80;54.30
30473;DHT22;17263;48.160;11.452;2023-05-31T10:55:16;22.50;55.40
30473;DHT22;17263;48.160;11.452;2023-05-31T10:57:43;22.40;55.90
30473;DHT22;17263;48.160;11.452;2023-05-31T11:00:10;22.40;55.80
30473;DHT22;17263;48.160;11.452;2023-05-31T11:02:58;22.30;55.60
30473;DHT22;17263;48.160;11.452;2023-05-31T11:05:25;22.30;55.70
30473;DHT22;17263;48.160;11.452;2023-05-31T11:07:53;22.30;56.50
30473;DHT22;17263;48.160;11.452;2023-05-31T11:10:30;22.30;56.60
30473;DHT22;17263;48.160;11.452;2023-05-31T11:13:04;22.30;57.10
30473;DHT22;17263;48.160;11.452;2023-05-31T11:15:44;22.40;56.50
30473;DHT22;17263;48.160;11.452;2023-05-31T11:18:23;22.60;55.30
30473;DHT22;17263;48.160;11.452;2023-05-31T11:20:49;22.50;54.80
30473;DHT22;17263;48.160;11.452;2023-05-31T11:23:25;22.50;55.50
30473;DHT22;17263;48.160;11.452;2023-05-31T11:26:14;22.50;55.30
30473;DHT22;17263;48.160;11.452;2023-05-31T11:28:57;22.40;56.30
30473;DHT22;17263;48.160;11.452;2023-05-31T11:34:25;22.30;55.60
30473;DHT22;17263;48.160;11.452;2023-05-31T11:37:00;22.20;56.30
30473;DHT22;17263;48.160;11.452;2023-05-31T11:39:26;22.30;57.30
30473;DHT22;17263;48.160;11.452;2023-05-31T11:41:56;22.40;57.20
30473;DHT22;17263;48.160;11.452;2023-05-31T11:44:27;22.40;57.40
30473;DHT22;17263;48.160;11.452;2023-05-31T11:47:18;22.50;56.70
30473;DHT22;17263;48.160;11.452;2023-05-31T11:49:44;22.50;56.60
30473;DHT22;17263;48.160;11.452;2023-05-31T11:52:15;22.60;57.40
30473;DHT22;17263;48.160;11.452;2023-05-31T11:54:43;22.40;56.50
30473;DHT22;17263;48.160;11.452;2023-05-31T11:57:11;22.50;57.60
30473;DHT22;17263;48.160;11.452;2023-05-31T11:59:38;22.60;57.50
30473;DHT22;17263;48.160;11.452;2023-05-31T12:02:06;22.60;57.50
30473;DHT22;17263;48.160;11.452;2023-05-31T12:04:34;22.60;57.00
30473;DHT22;17263;48.160;11.452;2023-05-31T12:07:16;22.60;57.90
30473;DHT22;17263;48.160;11.452;2023-05-31T12:09:43;22.70;57.10
30473;DHT22;17263;48.160;11.452;2023-05-31T12:12:10;22.70;57.10
30473;DHT22;17263;48.160;11.452;2023-05-31T12:14:37;22.70;58.10
30473;DHT22;17263;48.160;11.452;2023-05-31T12:17:04;22.70;58.10
30473;DHT22;17263;48.160;11.452;2023-05-31T12:19:31;22.90;58.40
30473;DHT22;17263;48.160;11.452;2023-05-31T12:21:58;23.00;56.50
30473;DHT22;17263;48.160;11.452;2023-05-31T12:24:24;23.00;56.40
30473;DHT22;17263;48.160;11.452;2023-05-31T12:26:50;23.00;57.20
30473;DHT22;17263;48.160;11.452;2023-05-31T12:29:18;22.90;57.70
30473;DHT22;17263;48.160;11.452;2023-05-31T12:31:44;23.00;58.10
30473;DHT22;17263;48.160;11.452;2023-05-31T12:34:12;22.90;58.80
30473;DHT22;17263;48.160;11.452;2023-05-31T12:36:43;22.90;58.40
30473;DHT22;17263;48.160;11.452;2023-05-31T12:39:18;22.90;59.20
30473;DHT22;17263;48.160;11.452;2023-05-31T12:41:45;22.90;58.00
30473;DHT22;17263;48.160;11.452;2023-05-31T12:44:12;23.00;57.60
30473;DHT22;17263;48.160;11.452;2023-05-31T12:46:40;22.90;56.40
30473;DHT22;17263;48.160;11.452;2023-05-31T12:49:26;22.80;56.70
30473;DHT22;17263;48.160;11.452;2023-05-31T12:52:05;22.80;56.30
30473;DHT22;17263;48.160;11.452;2023-05-31T12:54:34;22.90;55.60
30473;DHT22;17263;48.160;11.452;2023-05-31T12:57:02;23.00;57.20
30473;DHT22;17263;48.160;11.452;2023-05-31T12:59:30;23.00;57.30
30473;DHT22;17263;48.160;11.452;2023-05-31T13:02:00;23.10;57.70
30473;DHT22;17263;48.160;11.452;2023-05-31T13:04:27;23.10;56.60
30473;DHT22;17263;48.160;11.452;2023-05-31T13:06:53;23.10;56.20
30473;DHT22;17263;48.160;11.452;2023-05-31T13:09:20;23.10;56.80
30473;DHT22;17263;48.160;11.452;2023-05-31T13:11:46;23.10;56.60
30473;DHT22;17263;48.160;11.452;2023-05-31T13:14:15;23.20;55.20
30473;DHT22;17263;48.160;11.452;2023-05-31T13:16:42;23.10;54.70
30473;DHT22;17263;48.160;11.452;2023-05-31T13:19:08;23.20;54.90
30473;DHT22;17263;48.160;11.452;2023-05-31T13:21:35;23.10;54.40
30473;DHT22;17263;48.160;11.452;2023-05-31T13:24:07;23.10;54.50
30473;DHT22;17263;48.160;11.452;2023-05-31T13:26:34;23.10;53.50
30473;DHT22;17263;48.160;11.452;2023-05-31T13:29:02;23.10;53.80
30473;DHT22;17263;48.160;11.452;2023-05-31T13:31:30;23.10;53.70
30473;DHT22;17263;48.160;11.452;2023-05-31T13:33:56;23.20;54.50
30473;DHT22;17263;48.160;11.452;2023-05-31T13:36:23;23.20;55.40
30473;DHT22;17263;48.160;11.452;2023-05-31T13:38:52;23.30;55.40
30473;DHT22;17263;48.160;11.452;2023-05-31T13:41:18;23.30;54.50
30473;DHT22;17263;48.160;11.452;2023-05-31T13:43:46;23.20;54.40
30473;DHT22;17263;48.160;11.452;2023-05-31T13:46:12;23.10;55.10
30473;DHT22;17263;48.160;11.452;2023-05-31T13:48:38;23.10;55.70
30473;DHT22;17263;48.160;11.452;2023-05-31T13:51:05;23.10;57.00
30473;DHT22;17263;48.160;11.452;2023-05-31T13:53:32;23.10;57.80
30473;DHT22;17263;48.160;11.452;2023-05-31T13:55:58;23.20;58.20
30473;DHT22;17263;48.160;11.452;2023-05-31T13:58:24;23.20;58.80
30473;DHT22;17263;48.160;11.452;2023-05-31T14:00:50;23.20;58.10
30473;DHT22;17263;48.160;11.452;2023-05-31T14:03:16;23.20;57.50
30473;DHT22;17263;48.160;11.452;2023-05-31T14:05:43;23.20;58.30
30473;DHT22;17263;48.160;11.452;2023-05-31T14:08:11;23.30;57.60
30473;DHT22;17263;48.160;11.452;2023-05-31T14:10:37;23.30;56.70
30473;DHT22;17263;48.160;11.452;2023-05-31T14:13:04;23.20;55.70
30473;DHT22;17263;48.160;11.452;2023-05-31T14:15:30;23.20;56.00
30473;DHT22;17263;48.160;11.452;2023-05-31T14:17:57;23.20;55.90
30473;DHT22;17263;48.160;11.452;2023-05-31T14:20:23;23.20;56.50
30473;DHT22;17263;48.160;11.452;2023-05-31T14:22:49;23.30;56.90
30473;DHT22;17263;48.160;11.452;2023-05-31T14:25:15;23.30;56.20
30473;DHT22;17263;48.160;11.452;2023-05-31T14:27:41;23.40;56.90
30473;DHT22;17263;48.160;11.452;2023-05-31T14:30:08;23.40;55.90
30473;DHT22;17263;48.160;11.452;2023-05-31T14:32:34;23.40;54.80
30473;DHT22;17263;48.160;11.452;2023-05-31T14:35:00;23.30;53.80
30473;DHT22;17263;48.160;11.452;2023-05-31T14:37:26;23.30;53.80
30473;DHT22;17263;48.160;11.452;2023-05-31T14:39:52;23.30;54.60
30473;DHT22;17263;48.160;11.452;2023-05-31T14:42:18;23.30;54.40
30473;DHT22;17263;48.160;11.452;2023-05-31T14:44:44;23.30;55.10
30473;DHT22;17263;48.160;11.452;2023-05-31T14:47:10;23.30;55.80
30473;DHT22;17263;48.160;11.452;2023-05-31T14:49:37;23.30;55.80
30473;DHT22;17263;48.160;11.452;2023-05-31T14:52:03;23.30;55.80
30473;DHT22;17263;48.160;11.452;2023-05-31T14:54:29;23.20;56.40
30473;DHT22;17263;48.160;11.452;2023-05-31T14:56:55;23.20;55.00
30473;DHT22;17263;48.160;11.452;2023-05-31T14:59:22;23.20;52.90
30473;DHT22;17263;48.160;11.452;2023-05-31T15:01:54;23.20;52.10
30473;DHT22;17263;48.160;11.452;2023-05-31T15:04:23;23.20;54.40
30473;DHT22;17263;48.160;11.452;2023-05-31T15:06:49;23.20;55.10
30473;DHT22;17263;48.160;11.452;2023-05-31T15:09:15;23.20;54.00
30473;DHT22;17263;48.160;11.452;2023-05-31T15:11:41;23.20;54.40
30473;DHT22;17263;48.160;11.452;2023-05-31T15:14:07;23.20;54.40
30473;DHT22;17263;48.160;11.452;2023-05-31T15:16:35;23.20;54.50
30473;DHT22;17263;48.160;11.452;2023-05-31T15:19:02;23.20;52.60
30473;DHT22;17263;48.160;11.452;2023-05-31T15:21:28;23.20;53.00
30473;DHT22;17263;48.160;11.452;2023-05-31T15:23:54;23.30;53.40
30473;DHT22;17263;48.160;11.452;2023-05-31T15:26:20;23.30;53.30
30473;DHT22;17263;48.160;11.452;2023-05-31T15:28:48;23.30;53.60
30473;DHT22;17263;48.160;11.452;2023-05-31T15:31:14;23.20;53.50
30473;DHT22;17263;48.160;11.452;2023-05-31T15:33:40;23.10;53.70
30473;DHT22;17263;48.160;11.452;2023-05-31T15:36:07;23.20;52.90